createdAt,value
2018-08-31T00:05:56.742Z,7.27
2018-08-31T00:08:47.551Z,7.03
2018-08-31T00:11:22.016Z,6.60
2018-08-31T00:13:52.404Z,7.47
2018-08-31T00:16:26.907Z,8.20
2018-08-31T00:18:59.332Z,7.70
2018-08-31T00:21:30.474Z,7.53
2018-08-31T00:24:36.746Z,6.43
2018-08-31T00:27:43.113Z,6.60
2018-08-31T00:33:58.655Z,6.87
2018-08-31T00:36:29.055Z,7.80
2018-08-31T00:38:59.702Z,9.63
2018-08-31T00:41:31.125Z,9.23
2018-08-31T00:44:01.534Z,8.27
2018-08-31T00:46:31.936Z,7.93
2018-08-31T00:49:21.396Z,8.27
2018-08-31T00:51:51.804Z,11.23
2018-08-31T00:54:22.206Z,8.67
2018-08-31T00:56:52.631Z,6.00
2018-08-31T00:59:23.028Z,7.53
2018-08-31T01:01:53.414Z,6.60
2018-08-31T01:04:23.843Z,7.07
2018-08-31T01:06:54.211Z,7.77
2018-08-31T01:09:24.609Z,8.97
2018-08-31T01:11:55.034Z,8.77
2018-08-31T01:14:26.473Z,8.23
2018-08-31T01:16:57.617Z,7.50
2018-08-31T01:19:28.027Z,7.90
2018-08-31T01:21:59.184Z,7.93
2018-08-31T01:24:30.345Z,6.90
2018-08-31T01:27:00.771Z,9.70
2018-08-31T01:29:31.183Z,6.63
2018-08-31T01:32:02.344Z,6.27
2018-08-31T01:34:32.779Z,6.57
2018-08-31T01:37:03.155Z,9.30
2018-08-31T01:39:33.820Z,7.07
2018-08-31T01:42:04.245Z,8.13
2018-08-31T01:44:35.603Z,9.27
2018-08-31T01:47:06.007Z,8.07
2018-08-31T01:49:38.218Z,11.53
2018-08-31T01:52:10.640Z,9.20
2018-08-31T01:54:43.114Z,9.90
2018-08-31T01:57:13.509Z,9.13
2018-08-31T02:00:05.366Z,8.90
2018-08-31T02:02:35.750Z,9.13
2018-08-31T02:05:10.249Z,8.30
2018-08-31T02:07:40.682Z,8.90
2018-08-31T02:10:11.098Z,9.73
2018-08-31T02:12:42.291Z,12.30
2018-08-31T02:15:33.103Z,10.03
2018-08-31T02:18:03.489Z,11.97
2018-08-31T02:20:33.873Z,9.67
2018-08-31T02:23:04.295Z,9.40
2018-08-31T02:25:34.621Z,7.40
2018-08-31T02:28:05.003Z,7.90
2018-08-31T02:30:36.090Z,9.47
2018-08-31T02:33:06.406Z,7.10
2018-08-31T02:35:36.802Z,8.83
2018-08-31T02:38:09.270Z,10.63
2018-08-31T02:40:39.674Z,10.13
2018-08-31T02:43:11.030Z,7.57
2018-08-31T02:45:41.464Z,6.77
2018-08-31T02:48:11.850Z,6.10
2018-08-31T02:50:42.234Z,8.10
2018-08-31T02:53:12.817Z,6.97
2018-08-31T02:55:43.216Z,6.77
2018-08-31T02:58:35.890Z,7.87
2018-08-31T03:01:06.283Z,6.67
2018-08-31T03:03:36.668Z,6.20
2018-08-31T03:06:13.335Z,6.47
2018-08-31T03:08:44.505Z,6.53
2018-08-31T03:11:14.894Z,7.47
2018-08-31T03:13:46.076Z,5.90
2018-08-31T03:16:16.452Z,6.00
2018-08-31T03:18:46.780Z,6.17
2018-08-31T03:21:17.237Z,7.43
2018-08-31T03:23:47.596Z,5.53
2018-08-31T03:26:17.987Z,6.00
2018-08-31T03:28:49.173Z,7.07
2018-08-31T03:31:39.969Z,9.20
2018-08-31T03:34:12.421Z,7.07
2018-08-31T03:36:42.857Z,4.87
2018-08-31T03:39:16.017Z,7.57
2018-08-31T03:41:46.372Z,6.37
2018-08-31T03:44:16.777Z,8.67
2018-08-31T03:46:47.913Z,5.80
2018-08-31T03:49:18.333Z,6.03
2018-08-31T03:51:48.740Z,5.17
2018-08-31T03:54:19.114Z,4.97
2018-08-31T03:56:49.749Z,6.20
2018-08-31T03:59:20.138Z,7.80
2018-08-31T04:01:50.464Z,8.93
2018-08-31T04:04:20.891Z,9.33
2018-08-31T04:06:51.214Z,6.60
2018-08-31T04:09:21.610Z,6.03
2018-08-31T04:11:52.790Z,5.93
2018-08-31T04:14:23.194Z,8.23
2018-08-31T04:17:12.975Z,8.30
2018-08-31T04:19:43.365Z,6.63
2018-08-31T04:22:13.739Z,7.37
2018-08-31T04:24:44.176Z,7.17
2018-08-31T04:27:14.573Z,7.07
2018-08-31T04:29:50.091Z,8.40
2018-08-31T04:32:22.221Z,5.43
2018-08-31T04:34:52.604Z,6.97
2018-08-31T04:37:24.018Z,7.57
2018-08-31T04:39:54.441Z,5.17
2018-08-31T04:42:25.587Z,8.97
2018-08-31T04:47:47.492Z,5.70
2018-08-31T04:50:18.945Z,8.07
2018-08-31T04:52:49.277Z,5.10
2018-08-31T04:55:20.440Z,5.57
2018-08-31T04:57:50.818Z,6.93
2018-08-31T05:00:21.209Z,5.37
2018-08-31T05:02:53.425Z,5.90
2018-08-31T05:05:24.834Z,7.03
2018-08-31T05:07:56.193Z,4.80
2018-08-31T05:10:26.619Z,6.50
2018-08-31T05:12:57.021Z,5.43
2018-08-31T05:15:28.174Z,4.73
2018-08-31T05:17:59.390Z,6.43
2018-08-31T05:20:29.779Z,7.23
2018-08-31T05:23:00.197Z,4.77
2018-08-31T05:25:30.577Z,5.03
2018-08-31T05:28:00.975Z,6.03
2018-08-31T05:30:33.403Z,6.10
2018-08-31T05:33:04.569Z,8.57
2018-08-31T05:35:34.894Z,5.67
2018-08-31T05:38:05.288Z,6.60
2018-08-31T05:40:35.724Z,7.20
2018-08-31T05:43:06.891Z,7.37
2018-08-31T05:45:37.301Z,5.90
2018-08-31T05:48:08.496Z,7.20
2018-08-31T05:51:00.031Z,4.70
2018-08-31T05:53:30.528Z,7.13
2018-08-31T05:56:00.834Z,5.90
2018-08-31T05:58:31.216Z,7.73
2018-08-31T06:01:01.649Z,6.20
2018-08-31T06:03:32.045Z,5.90
2018-08-31T06:06:05.181Z,5.60
2018-08-31T06:08:35.604Z,5.30
2018-08-31T06:11:06.006Z,5.00
2018-08-31T06:13:36.393Z,6.57
2018-08-31T06:16:06.749Z,7.60
2018-08-31T06:18:56.513Z,7.07
2018-08-31T06:21:27.958Z,7.00
2018-08-31T06:23:58.339Z,5.40
2018-08-31T06:26:28.662Z,5.23
2018-08-31T06:28:59.055Z,7.00
2018-08-31T06:31:48.810Z,5.67
2018-08-31T06:34:19.230Z,7.43
2018-08-31T06:36:49.612Z,5.63
2018-08-31T06:39:20.015Z,5.77
2018-08-31T06:41:54.516Z,6.80
2018-08-31T06:44:24.890Z,6.80
2018-08-31T06:46:55.221Z,7.43
2018-08-31T06:49:25.587Z,7.60
2018-08-31T06:51:55.980Z,6.97
2018-08-31T06:54:26.364Z,5.97
2018-08-31T06:56:57.802Z,6.93
2018-08-31T06:59:28.184Z,6.10
2018-08-31T07:01:58.565Z,7.43
2018-08-31T07:04:28.950Z,8.73
2018-08-31T07:07:00.794Z,6.57
2018-08-31T07:09:31.134Z,6.97
2018-08-31T07:12:02.263Z,8.53
2018-08-31T07:14:32.643Z,9.13
2018-08-31T07:17:04.053Z,5.30
2018-08-31T07:19:35.228Z,7.87
2018-08-31T07:22:05.615Z,6.17
2018-08-31T07:24:36.016Z,6.57
2018-08-31T07:27:06.368Z,6.90
2018-08-31T07:29:36.744Z,6.37
2018-08-31T07:32:09.229Z,6.67
2018-08-31T07:34:39.582Z,7.30
2018-08-31T07:37:09.983Z,5.60
2018-08-31T07:39:47.719Z,9.00
2018-08-31T07:42:18.166Z,7.67
2018-08-31T07:44:48.429Z,6.97
2018-08-31T07:47:20.872Z,5.07
2018-08-31T07:49:52.915Z,5.97
2018-08-31T07:52:23.301Z,5.40
2018-08-31T07:54:53.675Z,5.17
2018-08-31T07:57:24.070Z,4.07
2018-08-31T07:59:54.462Z,5.77
2018-08-31T08:02:24.853Z,5.60
2018-08-31T08:04:56.019Z,5.00
2018-08-31T08:07:26.544Z,9.53
2018-08-31T08:09:56.832Z,6.77
2018-08-31T08:12:27.229Z,3.80
2018-08-31T08:14:58.648Z,7.43
2018-08-31T08:17:29.070Z,7.40
2018-08-31T08:19:59.473Z,5.93
2018-08-31T08:22:29.858Z,6.20
2018-08-31T08:25:07.433Z,10.17
2018-08-31T08:27:37.813Z,5.37
2018-08-31T08:30:08.201Z,6.70
2018-08-31T08:32:38.538Z,6.53
2018-08-31T08:35:30.337Z,5.83
2018-08-31T08:38:00.756Z,6.73
2018-08-31T08:40:31.623Z,5.80
2018-08-31T08:43:09.464Z,4.33
2018-08-31T08:45:39.847Z,6.30
2018-08-31T08:48:11.314Z,4.53
2018-08-31T08:50:42.431Z,6.40
2018-08-31T08:53:12.816Z,4.80
2018-08-31T08:55:43.472Z,4.23
2018-08-31T08:58:14.770Z,7.53
2018-08-31T09:03:31.316Z,7.47
2018-08-31T09:06:01.698Z,7.33
2018-08-31T09:08:32.084Z,7.27
2018-08-31T09:11:03.271Z,5.67
2018-08-31T09:13:39.731Z,5.27
2018-08-31T09:16:10.172Z,6.53
2018-08-31T09:18:45.686Z,4.23
2018-08-31T09:21:18.914Z,5.43
2018-08-31T09:23:56.398Z,5.50
2018-08-31T09:26:26.817Z,4.83
2018-08-31T09:28:57.207Z,5.30
2018-08-31T09:31:27.583Z,5.97
2018-08-31T09:34:05.182Z,6.03
2018-08-31T09:36:54.106Z,6.17
2018-08-31T09:39:24.742Z,5.60
2018-08-31T09:41:57.944Z,30.23
2018-08-31T09:44:28.341Z,8.13
2018-08-31T09:46:59.606Z,4.47
2018-08-31T09:49:29.997Z,6.70
2018-08-31T09:52:07.716Z,7.60
2018-08-31T09:54:38.880Z,5.03
2018-08-31T09:57:10.026Z,3.13
2018-08-31T09:59:40.448Z,6.63
2018-08-31T10:02:10.847Z,4.10
2018-08-31T10:04:41.245Z,5.63
2018-08-31T10:07:11.587Z,7.43
2018-08-31T10:09:41.978Z,7.07
2018-08-31T10:12:14.408Z,6.33
2018-08-31T10:14:45.580Z,4.60
2018-08-31T10:17:15.962Z,3.67
2018-08-31T10:19:46.354Z,7.10
2018-08-31T10:22:23.768Z,6.70
2018-08-31T10:24:55.181Z,3.70
2018-08-31T10:27:25.801Z,5.77
2018-08-31T10:29:56.231Z,5.00
2018-08-31T10:32:26.609Z,5.13
2018-08-31T10:34:57.292Z,6.07
2018-08-31T10:37:27.708Z,4.23
2018-08-31T10:39:58.826Z,5.50
2018-08-31T10:42:29.225Z,6.40
2018-08-31T10:45:18.739Z,5.80
2018-08-31T10:47:49.120Z,6.07
2018-08-31T10:50:22.258Z,5.87
2018-08-31T10:52:53.428Z,5.20
2018-08-31T10:55:23.828Z,4.23
2018-08-31T10:57:54.985Z,3.43
2018-08-31T11:00:26.153Z,7.97
2018-08-31T11:02:56.543Z,4.30
2018-08-31T11:05:27.633Z,5.90
2018-08-31T11:07:58.062Z,6.10
2018-08-31T11:10:31.522Z,4.33
2018-08-31T11:13:02.778Z,7.63
2018-08-31T11:15:37.224Z,4.33
2018-08-31T11:18:09.693Z,6.13
2018-08-31T11:20:40.066Z,5.57
2018-08-31T11:23:10.483Z,5.67
2018-08-31T11:25:40.811Z,5.17
2018-08-31T11:28:11.208Z,5.03
2018-08-31T11:30:43.604Z,7.20
2018-08-31T11:33:15.058Z,7.10
2018-08-31T11:35:47.148Z,4.80
2018-08-31T11:38:17.659Z,5.37
2018-08-31T11:40:48.046Z,6.43
2018-08-31T11:43:18.418Z,4.50
2018-08-31T11:45:48.769Z,6.27
2018-08-31T11:48:19.913Z,5.67
2018-08-31T11:50:51.057Z,6.30
2018-08-31T11:53:21.495Z,4.87
2018-08-31T11:55:51.874Z,6.07
2018-08-31T11:58:22.273Z,5.70
2018-08-31T12:00:52.716Z,3.83
2018-08-31T12:03:23.002Z,7.27
2018-08-31T12:05:53.405Z,5.83
2018-08-31T12:08:23.833Z,4.70
2018-08-31T12:10:54.236Z,5.50
2018-08-31T12:13:24.630Z,4.27
2018-08-31T12:15:55.089Z,5.53
2018-08-31T12:18:25.474Z,4.30
2018-08-31T12:20:55.847Z,5.67
2018-08-31T12:23:26.206Z,5.37
2018-08-31T12:25:57.436Z,6.77
2018-08-31T12:28:27.761Z,4.63
2018-08-31T12:30:58.374Z,3.80
2018-08-31T12:33:31.600Z,6.20
2018-08-31T12:36:02.774Z,5.53
2018-08-31T12:38:33.195Z,5.33
2018-08-31T12:41:03.595Z,5.33
2018-08-31T12:43:34.003Z,4.93
2018-08-31T12:46:04.399Z,7.27
2018-08-31T12:48:42.093Z,5.27
2018-08-31T12:51:17.618Z,6.77
2018-08-31T12:56:38.505Z,5.07
2018-08-31T12:59:09.917Z,4.87
2018-08-31T13:01:40.298Z,7.07
2018-08-31T13:04:10.657Z,6.37
2018-08-31T13:06:41.036Z,6.47
2018-08-31T13:09:11.443Z,5.10
2018-08-31T13:11:41.865Z,5.73
2018-08-31T13:14:12.259Z,5.23
2018-08-31T13:16:42.656Z,5.37
2018-08-31T13:19:13.847Z,7.37
2018-08-31T13:21:44.234Z,4.37
2018-08-31T13:24:15.383Z,5.90
2018-08-31T13:26:46.506Z,5.43
2018-08-31T13:29:17.233Z,4.20
2018-08-31T13:31:53.449Z,7.00
2018-08-31T13:34:23.838Z,5.30
2018-08-31T13:36:54.234Z,5.90
2018-08-31T13:39:24.635Z,6.80
2018-08-31T13:41:55.019Z,6.03
2018-08-31T13:44:26.176Z,5.30
2018-08-31T13:46:57.356Z,6.00
2018-08-31T13:49:33.902Z,5.10
2018-08-31T13:52:05.335Z,4.80
2018-08-31T13:54:36.420Z,5.33
2018-08-31T13:57:06.814Z,4.50
2018-08-31T13:59:40.120Z,7.63
2018-08-31T14:02:10.445Z,6.83
2018-08-31T14:04:40.833Z,6.03
2018-08-31T14:07:11.399Z,5.80
2018-08-31T14:10:00.831Z,7.00
2018-08-31T14:12:31.226Z,5.07
2018-08-31T14:15:04.688Z,7.20
2018-08-31T14:17:35.892Z,4.60
2018-08-31T14:20:08.325Z,6.73
2018-08-31T14:22:38.722Z,6.87
2018-08-31T14:25:09.914Z,25.47
2018-08-31T14:27:47.151Z,11.23
2018-08-31T14:30:18.328Z,7.63
2018-08-31T14:32:48.711Z,18.20
2018-08-31T14:35:19.114Z,9.50
2018-08-31T14:37:49.515Z,8.73
2018-08-31T14:40:19.899Z,9.53
2018-08-31T14:42:50.276Z,6.17
2018-08-31T14:45:22.739Z,6.50
2018-08-31T14:47:55.102Z,6.50
2018-08-31T14:50:25.498Z,5.30
2018-08-31T14:52:55.826Z,5.27
2018-08-31T14:55:26.229Z,6.13
2018-08-31T14:57:56.631Z,6.50
2018-08-31T15:00:32.164Z,8.20
2018-08-31T15:03:02.554Z,5.50
2018-08-31T15:05:32.980Z,6.33
2018-08-31T15:08:22.684Z,6.97
2018-08-31T15:10:53.827Z,4.87
2018-08-31T15:13:24.967Z,6.17
2018-08-31T15:15:56.137Z,5.10
2018-08-31T15:18:26.465Z,4.10
2018-08-31T15:20:56.867Z,5.43
2018-08-31T15:23:30.588Z,6.17
2018-08-31T15:26:08.220Z,5.80
2018-08-31T15:28:44.758Z,6.80
2018-08-31T15:31:15.175Z,3.93
2018-08-31T15:33:45.527Z,4.97
2018-08-31T15:36:15.934Z,5.67
2018-08-31T15:38:46.320Z,9.20
2018-08-31T15:41:16.708Z,10.13
2018-08-31T15:43:47.409Z,8.77
2018-08-31T15:46:17.800Z,5.70
2018-08-31T15:48:50.399Z,4.37
2018-08-31T15:51:21.590Z,5.67
2018-08-31T15:53:51.916Z,5.27
2018-08-31T15:56:32.235Z,4.23
2018-08-31T15:59:02.629Z,5.50
2018-08-31T16:01:33.022Z,4.30
2018-08-31T16:04:03.436Z,6.20
2018-08-31T16:06:33.839Z,6.03
2018-08-31T16:11:49.130Z,4.23
2018-08-31T16:14:20.275Z,13.27
2018-08-31T16:16:51.417Z,4.80
2018-08-31T16:19:22.531Z,9.20
2018-08-31T16:21:52.911Z,5.87
2018-08-31T16:24:23.306Z,5.70
2018-08-31T16:26:53.725Z,8.07
2018-08-31T16:29:24.108Z,5.27
2018-08-31T16:31:56.545Z,5.00
2018-08-31T16:34:27.740Z,6.23
2018-08-31T16:37:18.273Z,7.37
2018-08-31T16:39:51.342Z,4.43
2018-08-31T16:42:21.737Z,8.10
2018-08-31T16:44:52.115Z,6.07
2018-08-31T16:47:22.687Z,8.33
2018-08-31T16:49:55.891Z,4.77
2018-08-31T16:52:26.294Z,4.00
2018-08-31T16:54:56.716Z,655.33
2018-08-31T16:57:28.522Z,792.43
2018-08-31T17:00:18.483Z,360.53
2018-08-31T17:02:48.734Z,390.40
2018-08-31T17:05:38.531Z,106.60
2018-08-31T17:08:08.960Z,79.20
2018-08-31T17:10:39.342Z,68.60
2018-08-31T17:13:09.762Z,22.20
2018-08-31T17:15:41.168Z,25.13
2018-08-31T17:18:11.539Z,21.73
2018-08-31T17:20:41.975Z,129.13
2018-08-31T17:23:13.390Z,14.57
2018-08-31T17:25:43.772Z,28.50
2018-08-31T17:28:34.330Z,22.47
2018-08-31T17:31:05.487Z,9.77
2018-08-31T17:33:47.781Z,32.93
2018-08-31T17:36:18.878Z,7.80
2018-08-31T17:38:49.200Z,9.97
2018-08-31T17:41:19.628Z,12.93
2018-08-31T17:43:50.670Z,69.10
2018-08-31T17:46:21.266Z,60.23
2018-08-31T17:48:51.672Z,5.37
2018-08-31T17:51:22.823Z,369.90
2018-08-31T17:53:53.217Z,58.37
2018-08-31T17:56:23.705Z,54.13
2018-08-31T17:58:54.018Z,72.73
2018-08-31T18:01:24.398Z,43.43
2018-08-31T18:03:54.826Z,37.13
2018-08-31T18:06:25.398Z,29.23
2018-08-31T18:08:55.798Z,11.50
2018-08-31T18:11:26.959Z,12.73
2018-08-31T18:14:00.008Z,5.53
2018-08-31T18:16:30.515Z,5.67
2018-08-31T18:19:01.859Z,4.37
2018-08-31T18:21:38.382Z,4.67
2018-08-31T18:24:09.567Z,6.40
2018-08-31T18:26:39.957Z,5.00
2018-08-31T18:29:10.345Z,5.53
2018-08-31T18:31:40.782Z,4.67
2018-08-31T18:34:11.192Z,3.47
2018-08-31T18:36:41.585Z,4.97
2018-08-31T18:39:17.702Z,6.17
2018-08-31T18:41:48.107Z,3.73
2018-08-31T18:44:24.655Z,4.90
2018-08-31T18:46:55.008Z,5.67
2018-08-31T18:49:30.530Z,6.00
2018-08-31T18:52:04.006Z,4.93
2018-08-31T18:54:35.093Z,3.97
2018-08-31T18:57:10.553Z,4.23
2018-08-31T18:59:40.944Z,5.40
2018-08-31T19:02:11.350Z,4.00
2018-08-31T19:04:42.543Z,4.67
2018-08-31T19:07:12.875Z,5.03
2018-08-31T19:09:43.280Z,6.33
2018-08-31T19:12:14.819Z,3.60
2018-08-31T19:14:45.209Z,6.07
2018-08-31T19:17:18.249Z,9.20
2018-08-31T19:19:48.606Z,5.77
2018-08-31T19:22:18.999Z,4.67
2018-08-31T19:24:49.380Z,6.50
2018-08-31T19:27:20.555Z,5.20
2018-08-31T19:29:50.984Z,5.70
2018-08-31T19:35:10.208Z,4.10
2018-08-31T19:37:40.648Z,3.77
2018-08-31T19:40:13.854Z,4.20
2018-08-31T19:42:44.382Z,4.67
2018-08-31T19:45:14.960Z,3.73
2018-08-31T19:47:45.357Z,5.80
2018-08-31T19:50:16.473Z,5.40
2018-08-31T19:52:47.048Z,4.87
2018-08-31T19:55:17.447Z,4.67
2018-08-31T19:57:48.634Z,4.87
2018-08-31T20:00:21.097Z,4.13
2018-08-31T20:02:51.485Z,3.87
2018-08-31T20:05:22.858Z,4.83
2018-08-31T20:07:53.237Z,6.63
2018-08-31T20:10:23.637Z,4.13
2018-08-31T20:12:58.134Z,4.67
2018-08-31T20:15:28.531Z,4.67
2018-08-31T20:18:01.689Z,4.93
2018-08-31T20:20:32.104Z,4.93
2018-08-31T20:23:03.649Z,5.47
2018-08-31T20:25:33.984Z,4.63
2018-08-31T20:28:07.474Z,3.87
2018-08-31T20:30:37.897Z,5.40
2018-08-31T20:33:08.937Z,4.80
2018-08-31T20:35:40.038Z,5.27
2018-08-31T20:38:10.424Z,4.63
2018-08-31T20:40:44.937Z,3.60
2018-08-31T20:43:15.389Z,4.57
2018-08-31T20:45:46.424Z,7.50
2018-08-31T20:48:22.996Z,4.37
2018-08-31T20:50:57.493Z,5.63
2018-08-31T20:53:27.897Z,5.63
2018-08-31T20:55:58.527Z,4.13
2018-08-31T20:58:29.702Z,6.00
2018-08-31T21:01:00.095Z,5.80
2018-08-31T21:03:31.273Z,15.37
2018-08-31T21:06:01.670Z,5.37
2018-08-31T21:08:32.816Z,3.97
2018-08-31T21:11:06.645Z,7.20
2018-08-31T21:13:37.047Z,5.73
2018-08-31T21:16:08.201Z,5.60
2018-08-31T21:18:38.622Z,6.13
2018-08-31T21:21:09.961Z,3.93
2018-08-31T21:23:40.270Z,3.63
2018-08-31T21:26:10.638Z,5.13
2018-08-31T21:28:40.958Z,6.20
2018-08-31T21:31:11.350Z,3.93
2018-08-31T21:33:41.855Z,4.53
2018-08-31T21:36:12.179Z,7.57
2018-08-31T21:38:45.648Z,4.50
2018-08-31T21:41:16.055Z,4.63
2018-08-31T21:43:49.246Z,5.30
2018-08-31T21:46:20.350Z,6.77
2018-08-31T21:48:50.752Z,4.23
2018-08-31T21:51:23.123Z,4.13
2018-08-31T21:53:53.499Z,4.07
2018-08-31T21:56:24.962Z,6.07
2018-08-31T21:58:55.282Z,4.27
2018-08-31T22:01:25.665Z,4.10
2018-08-31T22:03:56.073Z,4.00
2018-08-31T22:06:26.423Z,5.37
2018-08-31T22:08:56.814Z,5.27
2018-08-31T22:11:27.224Z,3.77
2018-08-31T22:14:01.112Z,4.23
2018-08-31T22:16:32.525Z,5.80
2018-08-31T22:19:02.942Z,4.83
2018-08-31T22:21:33.322Z,5.13
2018-08-31T22:24:03.721Z,5.83
2018-08-31T22:26:34.158Z,5.20
2018-08-31T22:29:04.569Z,4.47
2018-08-31T22:31:34.984Z,5.07
2018-08-31T22:34:06.609Z,6.47
2018-08-31T22:36:37.004Z,5.17
2018-08-31T22:39:07.405Z,7.20
2018-08-31T22:41:37.819Z,5.50
2018-08-31T22:44:10.269Z,7.77
2018-08-31T22:46:40.667Z,6.87
2018-08-31T22:49:11.322Z,6.13
2018-08-31T22:51:41.719Z,6.43
2018-08-31T22:54:12.040Z,5.10
2018-08-31T22:56:42.465Z,6.07
2018-08-31T22:59:12.827Z,3.80
2018-08-31T23:01:43.228Z,4.27
2018-08-31T23:04:14.374Z,4.97
2018-08-31T23:06:44.764Z,4.87
2018-08-31T23:09:37.368Z,4.03
2018-08-31T23:12:08.523Z,4.60
2018-08-31T23:14:38.923Z,6.00
2018-08-31T23:17:10.107Z,4.77
2018-08-31T23:19:40.719Z,3.50
2018-08-31T23:22:11.875Z,5.67
2018-08-31T23:24:42.291Z,3.80
2018-08-31T23:27:12.693Z,7.47
2018-08-31T23:29:43.085Z,4.57
2018-08-31T23:32:18.615Z,6.63
2018-08-31T23:34:48.992Z,5.03
2018-08-31T23:37:19.384Z,7.43
2018-08-31T23:39:54.902Z,5.80
2018-08-31T23:42:25.292Z,4.77
2018-08-31T23:44:55.674Z,7.40
2018-08-31T23:47:26.099Z,4.20
2018-08-31T23:52:46.374Z,3.80
2018-08-31T23:55:17.520Z,7.60
2018-08-31T23:57:48.656Z,4.67
